<?xml version="1.0" encoding="UTF-8"?>
<gpx xmlns="http://www.topografix.com/GPX/1/1" xmlns:gpsies="http://www.gpsies.com/GPX/1/0" creator="GPSies http://www.gpsies.com - GPSies Track" version="1.1" xmlns:xsi="http://www.w3.org/2001/XMLSchema-instance" xsi:schemaLocation="http://www.topografix.com/GPX/1/1 http://www.topografix.com/GPX/1/1/gpx.xsd http://www.gpsies.com/GPX/1/0 http://www.gpsies.com/gpsies.xsd">
  <metadata>
    <name>GPSies Track</name>
    <link href="http://www.gpsies.com/">
      <text>GPSies Track on GPSies.com</text>
    </link>
    <time>2017-04-16T14:06:41Z</time>
  </metadata>
  <wpt lat="50.47259990" lon="11.17463800">
    <ele>755.00000</ele>
    <name>Links leicht, Kurs: 79° E</name>
    <sym>tsll</sym>
    <type>TSLL</type>
  </wpt>
  <wpt lat="50.47266990" lon="11.17521590">
    <ele>754.00000</ele>
    <name>Links abbiegen, Kurs: 7° N</name>
    <sym>left</sym>
    <type>Left</type>
  </wpt>
  <wpt lat="50.47352190" lon="11.17538900">
    <ele>750.00000</ele>
    <name>Links leicht, Kurs: 349° N</name>
    <sym>tsll</sym>
    <type>TSLL</type>
  </wpt>
  <wpt lat="50.47534990" lon="11.17485200">
    <ele>753.00000</ele>
    <name>Links abbiegen, Kurs: 280° W</name>
    <sym>left</sym>
    <type>Left</type>
  </wpt>
  <wpt lat="50.47557990" lon="11.17286900">
    <ele>763.00000</ele>
    <name>Links leicht, Kurs: 227° SW</name>
    <sym>tsll</sym>
    <type>TSLL</type>
  </wpt>
  <wpt lat="50.47538790" lon="11.17254300">
    <ele>762.00000</ele>
    <name>Links abbiegen, Kurs: 157° SE</name>
    <sym>left</sym>
    <type>Left</type>
  </wpt>
  <wpt lat="50.47447590" lon="11.17312100">
    <ele>757.00000</ele>
    <name>Rechts abbiegen, Kurs: 227° SW</name>
    <sym>right</sym>
    <type>Right</type>
  </wpt>
  <wpt lat="50.47407990" lon="11.17244600">
    <ele>753.00000</ele>
    <name>Rechts abbiegen, Kurs: 321° NW</name>
    <sym>right</sym>
    <type>Right</type>
  </wpt>
  <trk>
    <name>GPSies Track on GPSies.com</name>
    <trkseg>
      <trkpt lat="50.47419485" lon="11.17182970">
        <ele>753.00000</ele>
        <time>2010-01-01T00:00:00Z</time>
      </trkpt>
      <trkpt lat="50.47423000" lon="11.17181800">
        <ele>753.00000</ele>
        <time>2010-01-01T00:00:01Z</time>
      </trkpt>
      <trkpt lat="50.47407500" lon="11.17199100">
        <ele>753.00000</ele>
        <time>2010-01-01T00:00:09Z</time>
      </trkpt>
      <trkpt lat="50.47378990" lon="11.17242100">
        <ele>756.00000</ele>
        <time>2010-01-01T00:00:24Z</time>
      </trkpt>
      <trkpt lat="50.47365990" lon="11.17281900">
        <ele>759.00000</ele>
        <time>2010-01-01T00:00:36Z</time>
      </trkpt>
      <trkpt lat="50.47360600" lon="11.17293800">
        <ele>760.00000</ele>
        <time>2010-01-01T00:00:39Z</time>
      </trkpt>
      <trkpt lat="50.47345000" lon="11.17316900">
        <ele>761.00000</ele>
        <time>2010-01-01T00:00:48Z</time>
      </trkpt>
      <trkpt lat="50.47312490" lon="11.17356800">
        <ele>763.00000</ele>
        <time>2010-01-01T00:01:05Z</time>
      </trkpt>
      <trkpt lat="50.47306990" lon="11.17368290">
        <ele>763.00000</ele>
        <time>2010-01-01T00:01:08Z</time>
      </trkpt>
      <trkpt lat="50.47289990" lon="11.17426690">
        <ele>756.00000</ele>
        <time>2010-01-01T00:01:25Z</time>
      </trkpt>
      <trkpt lat="50.47283590" lon="11.17438290">
        <ele>755.00000</ele>
        <time>2010-01-01T00:01:29Z</time>
      </trkpt>
      <trkpt lat="50.47275490" lon="11.17445600">
        <ele>755.00000</ele>
        <time>2010-01-01T00:01:32Z</time>
      </trkpt>
      <trkpt lat="50.47259990" lon="11.17463800">
        <ele>755.00000</ele>
        <time>2010-01-01T00:01:40Z</time>
      </trkpt>
      <trkpt lat="50.47258790" lon="11.17478800">
        <ele>755.00000</ele>
        <time>2010-01-01T00:01:44Z</time>
      </trkpt>
      <trkpt lat="50.47262590" lon="11.17508200">
        <ele>754.00000</ele>
        <time>2010-01-01T00:01:51Z</time>
      </trkpt>
      <trkpt lat="50.47266990" lon="11.17521590">
        <ele>754.00000</ele>
        <time>2010-01-01T00:01:55Z</time>
      </trkpt>
      <trkpt lat="50.47277490" lon="11.17523790">
        <ele>754.00000</ele>
        <time>2010-01-01T00:02:00Z</time>
      </trkpt>
      <trkpt lat="50.47287390" lon="11.17523990">
        <ele>753.00000</ele>
        <time>2010-01-01T00:02:04Z</time>
      </trkpt>
      <trkpt lat="50.47305690" lon="11.17535500">
        <ele>752.00000</ele>
        <time>2010-01-01T00:02:11Z</time>
      </trkpt>
      <trkpt lat="50.47315190" lon="11.17536500">
        <ele>752.00000</ele>
        <time>2010-01-01T00:02:15Z</time>
      </trkpt>
      <trkpt lat="50.47333990" lon="11.17541400">
        <ele>751.00000</ele>
        <time>2010-01-01T00:02:23Z</time>
      </trkpt>
      <trkpt lat="50.47352190" lon="11.17538900">
        <ele>750.00000</ele>
        <time>2010-01-01T00:02:30Z</time>
      </trkpt>
      <trkpt lat="50.47415490" lon="11.17536600">
        <ele>751.00000</ele>
        <time>2010-01-01T00:02:56Z</time>
      </trkpt>
      <trkpt lat="50.47424290" lon="11.17539100">
        <ele>751.00000</ele>
        <time>2010-01-01T00:02:59Z</time>
      </trkpt>
      <trkpt lat="50.47433990" lon="11.17539000">
        <ele>751.00000</ele>
        <time>2010-01-01T00:03:03Z</time>
      </trkpt>
      <trkpt lat="50.47456990" lon="11.17532400">
        <ele>751.00000</ele>
        <time>2010-01-01T00:03:12Z</time>
      </trkpt>
      <trkpt lat="50.47478990" lon="11.17531000">
        <ele>751.00000</ele>
        <time>2010-01-01T00:03:21Z</time>
      </trkpt>
      <trkpt lat="50.47487590" lon="11.17532500">
        <ele>750.00000</ele>
        <time>2010-01-01T00:03:25Z</time>
      </trkpt>
      <trkpt lat="50.47497590" lon="11.17531800">
        <ele>750.00000</ele>
        <time>2010-01-01T00:03:29Z</time>
      </trkpt>
      <trkpt lat="50.47506990" lon="11.17528000">
        <ele>750.00000</ele>
        <time>2010-01-01T00:03:33Z</time>
      </trkpt>
      <trkpt lat="50.47511690" lon="11.17514200">
        <ele>751.00000</ele>
        <time>2010-01-01T00:03:37Z</time>
      </trkpt>
      <trkpt lat="50.47528990" lon="11.17497600">
        <ele>752.00000</ele>
        <time>2010-01-01T00:03:45Z</time>
      </trkpt>
      <trkpt lat="50.47534990" lon="11.17485200">
        <ele>753.00000</ele>
        <time>2010-01-01T00:03:49Z</time>
      </trkpt>
      <trkpt lat="50.47546990" lon="11.17411600">
        <ele>759.00000</ele>
        <time>2010-01-01T00:04:08Z</time>
      </trkpt>
      <trkpt lat="50.47559690" lon="11.17375100">
        <ele>760.00000</ele>
        <time>2010-01-01T00:04:19Z</time>
      </trkpt>
      <trkpt lat="50.47560990" lon="11.17360300">
        <ele>761.00000</ele>
        <time>2010-01-01T00:04:22Z</time>
      </trkpt>
      <trkpt lat="50.47559390" lon="11.17345300">
        <ele>762.00000</ele>
        <time>2010-01-01T00:04:26Z</time>
      </trkpt>
      <trkpt lat="50.47560990" lon="11.17331000">
        <ele>763.00000</ele>
        <time>2010-01-01T00:04:30Z</time>
      </trkpt>
      <trkpt lat="50.47558990" lon="11.17316500">
        <ele>763.00000</ele>
        <time>2010-01-01T00:04:34Z</time>
      </trkpt>
      <trkpt lat="50.47559390" lon="11.17301300">
        <ele>763.00000</ele>
        <time>2010-01-01T00:04:38Z</time>
      </trkpt>
      <trkpt lat="50.47557990" lon="11.17286900">
        <ele>763.00000</ele>
        <time>2010-01-01T00:04:41Z</time>
      </trkpt>
      <trkpt lat="50.47547990" lon="11.17259900">
        <ele>763.00000</ele>
        <time>2010-01-01T00:04:49Z</time>
      </trkpt>
      <trkpt lat="50.47538790" lon="11.17254300">
        <ele>762.00000</ele>
        <time>2010-01-01T00:04:53Z</time>
      </trkpt>
      <trkpt lat="50.47527690" lon="11.17259700">
        <ele>761.00000</ele>
        <time>2010-01-01T00:04:58Z</time>
      </trkpt>
      <trkpt lat="50.47520390" lon="11.17268600">
        <ele>762.00000</ele>
        <time>2010-01-01T00:05:02Z</time>
      </trkpt>
      <trkpt lat="50.47503290" lon="11.17282400">
        <ele>762.00000</ele>
        <time>2010-01-01T00:05:09Z</time>
      </trkpt>
      <trkpt lat="50.47488990" lon="11.17302800">
        <ele>761.00000</ele>
        <time>2010-01-01T00:05:17Z</time>
      </trkpt>
      <trkpt lat="50.47480990" lon="11.17309900">
        <ele>760.00000</ele>
        <time>2010-01-01T00:05:21Z</time>
      </trkpt>
      <trkpt lat="50.47474990" lon="11.17320300">
        <ele>760.00000</ele>
        <time>2010-01-01T00:05:24Z</time>
      </trkpt>
      <trkpt lat="50.47465990" lon="11.17321900">
        <ele>759.00000</ele>
        <time>2010-01-01T00:05:28Z</time>
      </trkpt>
      <trkpt lat="50.47455990" lon="11.17318200">
        <ele>758.00000</ele>
        <time>2010-01-01T00:05:32Z</time>
      </trkpt>
      <trkpt lat="50.47447590" lon="11.17312100">
        <ele>757.00000</ele>
        <time>2010-01-01T00:05:36Z</time>
      </trkpt>
      <trkpt lat="50.47431990" lon="11.17295500">
        <ele>756.00000</ele>
        <time>2010-01-01T00:05:43Z</time>
      </trkpt>
      <trkpt lat="50.47413590" lon="11.17261600">
        <ele>753.00000</ele>
        <time>2010-01-01T00:05:55Z</time>
      </trkpt>
      <trkpt lat="50.47407990" lon="11.17244600">
        <ele>753.00000</ele>
        <time>2010-01-01T00:05:59Z</time>
      </trkpt>
      <trkpt lat="50.47415490" lon="11.17235400">
        <ele>752.00000</ele>
        <time>2010-01-01T00:06:03Z</time>
      </trkpt>
      <trkpt lat="50.47421600" lon="11.17223600">
        <ele>752.00000</ele>
        <time>2010-01-01T00:06:07Z</time>
      </trkpt>
      <trkpt lat="50.47437700" lon="11.17208600">
        <ele>753.00000</ele>
        <time>2010-01-01T00:06:15Z</time>
      </trkpt>
      <trkpt lat="50.47451577" lon="11.17189407">
        <ele>753.00000</ele>
        <time>2010-01-01T00:06:22Z</time>
      </trkpt>
    </trkseg>
  </trk>
</gpx>

